Time;durP1;ratioP1;P1;durP2;ratioP2;P2;SDS_P1;SDS_P2;PMS_P1;PMS_P2;Temp;Humidity;BMP_temperature;BMP_pressure;BME280_temperature;BME280_humidity;BME280_pressure;Samples;Min_cycle;Max_cycle;Signal;HPM_P1;HPM_P2
2022/01/20 02:09:16;;;;;;;6.25;3.83;;;;;;;3.34;79.96;100604.66;1087849;39;20785;-82
2022/01/20 02:17:58;;;;;;;6.00;3.60;;;;;;;3.57;79.40;100604.22;1087961;54;20731;-82
2022/01/20 02:19:03;;;;;;;6.43;4.30;;;;;;;3.59;78.95;100602.34;1088226;54;20019;-84
2022/01/20 02:22:04;;;;;;;6.13;4.07;;;;;;;3.51;79.66;100601.91;1088195;54;20011;-82
2022/01/20 02:23:06;;;;;;;7.13;4.28;;;;;;;3.68;79.07;100610.72;1091089;31;20734;-83
2022/01/20 02:24:15;;;;;;;7.63;4.32;;;;;;;3.64;78.90;100602.06;1088261;54;20042;-86
2022/01/20 02:25:36;;;;;;;6.88;4.68;;;;;;;3.55;79.37;100606.09;1088310;54;20071;-83
2022/01/20 02:26:43;;;;;;;6.47;4.18;;;;;;;3.64;79.33;100606.53;1088261;54;20018;-84
2022/01/20 02:27:46;;;;;;;6.25;3.60;;;;;;;3.69;78.89;100601.81;1088221;54;20050;-82
2022/01/20 02:29:19;;;;;;;6.63;4.30;;;;;;;3.59;79.27;100602.34;1088260;54;20034;-87
2022/01/20 02:30:35;;;;;;;6.35;3.97;;;;;;;3.58;79.58;100607.72;1088135;54;20094;-83
2022/01/20 02:35:12;;;;;;;7.85;4.93;;;;;;;3.50;79.57;100616.06;1087783;39;21012;-85
2022/01/20 02:36:19;;;;;;;6.68;4.32;;;;;;;3.61;79.36;100614.63;1088204;54;20022;-83
2022/01/20 02:37:23;;;;;;;5.85;3.90;;;;;;;3.62;79.44;100614.56;1088176;54;20043;-86
2022/01/20 02:38:42;;;;;;;7.45;4.40;;;;;;;3.69;79.32;100618.56;1088200;54;20039;-86
2022/01/20 02:40:32;;;;;;;6.75;4.15;;;;;;;3.67;79.18;100614.28;1088185;54;20010;-85
2022/01/20 02:45:32;;;;;;;6.78;4.55;;;;;;;3.61;79.71;100626.06;1088496;54;20030;-84
2022/01/20 02:46:36;;;;;;;6.60;4.63;;;;;;;3.53;79.72;100615.91;1088451;54;20018;-83
2022/01/20 02:47:41;;;;;;;6.13;4.07;;;;;;;3.60;79.65;100621.72;1088417;54;20042;-84
2022/01/20 02:48:43;;;;;;;6.35;4.40;;;;;;;3.71;79.45;100621.09;1088490;39;20629;-82
2022/01/20 02:49:48;;;;;;;6.15;4.35;;;;;;;3.51;80.06;100627.50;1098632;39;20713;-81
2022/01/20 02:50:50;;;;;;;6.68;4.35;;;;;;;3.65;79.64;100616.16;1088426;54;20038;-84
2022/01/20 02:51:58;;;;;;;7.60;5.22;;;;;;;3.63;79.74;100613.63;1088421;54;20711;-84
2022/01/20 02:53:02;;;;;;;6.50;4.70;;;;;;;3.49;79.98;100621.44;1088457;54;20052;-83
2022/01/20 02:54:12;;;;;;;7.57;5.00;;;;;;;3.68;79.79;100618.66;1088963;39;20719;-83
2022/01/20 02:55:15;;;;;;;6.95;4.78;;;;;;;3.57;80.13;100624.53;1099823;39;20647;-83
2022/01/20 02:56:21;;;;;;;6.70;4.55;;;;;;;3.51;80.12;100631.00;1088456;54;20034;-84
2022/01/20 02:57:23;;;;;;;6.32;4.38;;;;;;;3.48;80.36;100628.53;1088456;54;20738;-83
2022/01/20 02:58:27;;;;;;;6.55;4.32;;;;;;;3.54;80.31;100614.97;1088380;54;20924;-82
2022/01/20 02:59:29;;;;;;;5.93;4.13;;;;;;;3.47;80.69;100624.19;1088332;54;20765;-84
2022/01/20 03:00:43;;;;;;;7.15;4.57;;;;;;;3.49;80.51;100626.75;1088265;54;20041;-84
2022/01/20 03:01:47;;;;;;;6.80;4.38;;;;;;;3.54;80.26;100625.53;1088292;54;20746;-84
2022/01/20 03:02:50;;;;;;;7.32;4.47;;;;;;;3.63;80.01;100625.97;1088350;54;20042;-82
2022/01/20 03:03:54;;;;;;;7.03;4.63;;;;;;;3.62;80.06;100618.97;1088697;39;20591;-84
2022/01/20 03:05:15;;;;;;;7.93;5.15;;;;;;;3.43;80.26;100622.63;1091137;46;20030;-82
2022/01/20 06:15:13;;;;;;;8.95;5.80;;;;;;;3.58;80.35;100631.50;1087380;54;20070;-82
2022/01/20 06:16:15;;;;;;;8.15;4.72;;;;;;;3.72;79.80;100636.91;1087603;54;20041;-83
2022/01/20 06:17:33;;;;;;;11.13;6.75;;;;;;;3.59;80.05;100636.72;1087955;54;20054;-80
2022/01/20 06:18:54;;;;;;;9.75;5.60;;;;;;;3.79;79.95;100640.03;1087977;54;20091;-84
2022/01/20 06:20:04;;;;;;;7.55;5.32;;;;;;;3.86;79.66;100640.53;1087967;54;20045;-81
2022/01/20 06:21:08;;;;;;;8.70;5.82;;;;;;;3.83;79.65;100649.50;1088012;54;20041;-81
2022/01/20 06:22:13;;;;;;;8.40;6.03;;;;;;;3.88;79.39;100644.78;1088140;54;20042;-82
2022/01/20 06:23:18;;;;;;;13.13;6.72;;;;;;;3.78;79.67;100651.53;1088090;54;20027;-82
2022/01/20 06:24:22;;;;;;;12.40;6.55;;;;;;;3.85;79.31;100644.13;1087971;54;20038;-81
2022/01/20 06:25:27;;;;;;;11.35;6.10;;;;;;;3.62;79.94;100642.78;1096085;39;20596;-81
2022/01/20 06:26:36;;;;;;;14.40;8.32;;;;;;;3.58;79.98;100640.31;1088162;54;20025;-81
2022/01/20 06:27:40;;;;;;;9.60;6.15;;;;;;;3.65;80.08;100642.59;1089141;47;20034;-82
2022/01/20 06:28:45;;;;;;;9.60;6.13;;;;;;;3.69;79.82;100639.72;1088206;54;20027;-82
2022/01/20 06:29:49;;;;;;;12.10;7.57;;;;;;;3.48;80.00;100630.31;1088131;54;20018;-83
2022/01/20 06:31:02;;;;;;;14.02;8.05;;;;;;;3.48;80.28;100630.31;1088288;54;20019;-80
2022/01/20 06:32:10;;;;;;;12.57;7.70;;;;;;;3.26;80.62;100627.06;1088190;54;20035;-81
2022/01/20 06:33:12;;;;;;;10.98;6.88;;;;;;;3.25;80.92;100625.34;1088047;54;20035;-80
2022/01/20 06:34:19;;;;;;;10.07;7.03;;;;;;;3.26;81.18;100623.56;1088176;54;20035;-83
2022/01/20 06:35:21;;;;;;;11.32;6.90;;;;;;;3.21;81.29;100617.69;1088224;54;20018;-83
2022/01/20 06:36:25;;;;;;;11.65;7.45;;;;;;;3.33;81.09;100613.50;1088197;54;20025;-83
2022/01/20 06:37:27;;;;;;;10.30;6.47;;;;;;;3.45;80.48;100612.00;1088151;54;20018;-81
2022/01/20 07:56:38;;;;;;;13.85;7.07;;;;;;;3.41;79.77;100703.81;1089014;46;19934;-81
2022/01/20 08:07:02;;;;;;;16.70;6.93;;;;;;;3.40;79.96;100720.63;1087993;54;20046;-84
2022/01/20 08:08:08;;;;;;;12.57;6.57;;;;;;;3.48;79.96;100720.19;1090882;46;20018;-83
2022/01/20 08:29:23;;;;;;;10.93;5.55;;;;;;;3.78;78.71;100738.81;1088191;54;20074;-83
2022/01/20 08:49:07;;;;;;;14.75;7.38;;;;;;;3.89;78.42;100747.03;1088536;54;19995;-84
2022/01/20 08:54:51;;;;;;;10.75;7.22;;;;;;;4.00;77.82;100737.66;1086976;54;20029;-84
2022/01/20 09:03:19;;;;;;;13.75;7.55;;;;;;;3.96;78.27;100762.59;1088266;54;20030;-82
2022/01/20 09:04:27;;;;;;;13.48;7.40;;;;;;;3.92;78.52;100761.88;1099374;46;20018;-83
2022/01/20 09:05:29;;;;;;;12.82;6.97;;;;;;;3.95;78.59;100763.53;1088414;54;20059;-83
2022/01/20 09:06:33;;;;;;;18.13;8.30;;;;;;;3.89;78.60;100767.34;1092357;46;20030;-82
2022/01/20 09:07:35;;;;;;;15.45;7.82;;;;;;;3.87;78.78;100774.50;1089492;46;20059;-79
2022/01/20 09:08:39;;;;;;;13.65;7.25;;;;;;;3.94;78.42;100765.28;1089216;46;20037;-81
2022/01/20 09:09:42;;;;;;;15.05;7.38;;;;;;;4.03;77.96;100766.59;1089575;46;20014;-84
2022/01/20 09:12:16;;;;;;;13.50;7.05;;;;;;;4.06;77.87;100769.09;1090386;39;20579;-80
2022/01/20 09:15:54;;;;;;;12.95;6.65;;;;;;;4.25;77.88;100765.41;1087124;54;20034;-78
2022/01/20 09:16:58;;;;;;;13.98;6.57;;;;;;;4.36;77.38;100755.91;1087294;54;20033;-78
2022/01/20 09:18:05;;;;;;;12.02;6.65;;;;;;;4.50;77.08;100756.91;1087092;54;20053;-77
2022/01/20 09:19:10;;;;;;;11.45;6.82;;;;;;;4.57;76.73;100746.81;1087356;54;20053;-79
2022/01/20 09:20:14;;;;;;;13.43;6.65;;;;;;;4.47;76.84;100750.00;1087076;54;20038;-79
2022/01/20 09:21:23;;;;;;;15.98;7.90;;;;;;;4.48;76.87;100758.81;1087052;54;20094;-78
2022/01/20 09:22:29;;;;;;;12.57;6.55;;;;;;;4.39;76.83;100756.69;1087081;39;20163;-79
2022/01/20 09:23:34;;;;;;;14.43;7.60;;;;;;;4.55;76.47;100754.84;1087684;54;20038;-78
2022/01/20 09:24:35;;;;;;;10.60;6.65;;;;;;;4.54;76.44;100747.84;1088074;54;20038;-78
2022/01/20 09:25:42;;;;;;;15.27;6.88;;;;;;;4.48;76.48;100754.34;1096082;39;20663;-80
2022/01/20 09:27:09;;;;;;;13.45;6.70;;;;;;;4.64;76.22;100743.72;1088187;54;20018;-84
2022/01/20 09:28:23;;;;;;;11.10;5.68;;;;;;;4.79;75.83;100741.09;1088233;54;20030;-83
2022/01/20 09:34:56;;;;;;;12.20;6.35;;;;;;;4.48;75.93;100732.31;1087811;54;20030;-83
2022/01/20 09:36:23;;;;;;;11.95;6.85;;;;;;;4.40;76.09;100734.53;1087943;54;20056;-83
2022/01/20 09:37:24;;;;;;;12.55;6.20;;;;;;;4.59;76.00;100729.03;1088175;54;20039;-80
2022/01/20 09:39:07;;;;;;;10.30;5.78;;;;;;;4.64;75.46;100732.25;1088062;54;20041;-81
2022/01/20 09:40:15;;;;;;;11.80;5.95;;;;;;;4.52;75.59;100732.06;1088622;39;20652;-82
2022/01/20 09:41:20;;;;;;;15.23;6.32;;;;;;;4.60;75.48;100744.00;1088069;54;20015;-82
2022/01/20 09:45:43;;;;;;;16.00;6.63;;;;;;;4.50;75.60;100746.31;1088124;54;20031;-80
2022/01/20 09:46:45;;;;;;;11.15;5.75;;;;;;;4.49;75.80;100742.81;1088039;54;20034;-79
2022/01/20 09:47:49;;;;;;;16.00;7.13;;;;;;;4.36;75.95;100744.44;1088108;54;20026;-79
2022/01/20 09:48:54;;;;;;;14.38;6.35;;;;;;;4.52;75.63;100750.59;1088001;54;20023;-79
2022/01/20 09:49:55;;;;;;;16.00;6.68;;;;;;;4.41;75.44;100741.53;1088007;54;20014;-79
2022/01/20 09:51:04;;;;;;;14.43;6.65;;;;;;;4.39;75.54;100754.88;1087921;54;20600;-79
2022/01/20 09:52:11;;;;;;;15.77;5.60;;;;;;;4.45;75.72;100749.22;1087783;54;20094;-79
2022/01/20 09:53:15;;;;;;;12.68;5.43;;;;;;;4.53;75.13;100751.44;1088108;54;20033;-79
2022/01/20 09:54:18;;;;;;;12.85;5.65;;;;;;;4.49;75.10;100766.66;1087967;54;20094;-78
2022/01/20 09:55:22;;;;;;;15.65;6.18;;;;;;;4.55;75.26;100764.56;1088100;54;20089;-80
2022/01/20 09:56:26;;;;;;;12.90;6.03;;;;;;;4.35;75.69;100755.97;1087932;54;20035;-79
2022/01/20 09:57:28;;;;;;;14.93;6.30;;;;;;;4.30;75.86;100755.41;1088102;54;20038;-78
2022/01/20 09:58:32;;;;;;;16.05;7.03;;;;;;;4.31;75.92;100773.81;1088067;54;20038;-79
2022/01/20 09:59:36;;;;;;;12.00;6.13;;;;;;;4.26;76.02;100777.66;1088704;46;20054;-77
2022/01/20 10:00:43;;;;;;;15.30;6.25;;;;;;;4.35;75.59;100770.09;1088003;54;20038;-78
2022/01/20 10:01:48;;;;;;;13.90;6.88;;;;;;;4.40;75.54;100771.59;1092506;39;20271;-78
2022/01/20 10:02:55;;;;;;;13.52;6.60;;;;;;;4.40;75.19;100775.13;1087997;54;20042;-79
2022/01/20 10:04:00;;;;;;;16.52;7.00;;;;;;;4.26;75.38;100765.31;1087841;54;20038;-79
2022/01/20 10:05:04;;;;;;;13.45;6.00;;;;;;;4.44;75.38;100773.97;1087933;54;20034;-79
2022/01/20 10:06:09;;;;;;;14.75;5.90;;;;;;;4.37;75.49;100769.97;1087990;54;20110;-78
2022/01/20 10:07:15;;;;;;;11.35;5.65;;;;;;;4.45;75.24;100769.56;1087977;54;20030;-79
2022/01/20 10:08:21;;;;;;;11.88;5.10;;;;;;;4.60;74.92;100766.00;1090405;39;20582;-80
2022/01/20 10:09:29;;;;;;;15.48;5.47;;;;;;;4.61;74.81;100764.25;1089920;46;20069;-79
2022/01/20 10:10:43;;;;;;;12.05;5.90;;;;;;;4.50;74.95;100765.72;1088006;54;20034;-81
2022/01/20 10:11:47;;;;;;;13.73;6.38;;;;;;;4.55;75.22;100775.16;1088221;47;20693;-79
2022/01/20 10:12:52;;;;;;;17.27;6.20;;;;;;;4.44;75.03;100773.97;1088029;54;20046;-81
2022/01/20 10:14:00;;;;;;;12.82;6.18;;;;;;;4.50;75.16;100773.66;1087951;54;20133;-81
2022/01/20 10:15:08;;;;;;;14.18;6.57;;;;;;;4.53;75.16;100776.09;1088011;54;20069;-81
2022/01/20 10:16:14;;;;;;;12.88;6.03;;;;;;;4.43;75.33;100776.72;1088018;54;20055;-83
2022/01/20 10:17:19;;;;;;;16.58;5.95;;;;;;;4.57;74.81;100778.59;1088223;47;20034;-81
2022/01/20 10:18:23;;;;;;;13.30;5.82;;;;;;;4.43;75.35;100784.66;1087998;54;20042;-82
2022/01/20 10:19:30;;;;;;;11.60;5.68;;;;;;;4.61;74.81;100788.91;1088156;54;20051;-82
2022/01/20 10:20:37;;;;;;;13.88;5.93;;;;;;;4.45;74.90;100788.94;1088943;46;20019;-82
2022/01/20 10:21:41;;;;;;;16.58;6.15;;;;;;;4.43;75.41;100793.47;1089840;46;20039;-81
2022/01/20 10:22:57;;;;;;;16.30;6.30;;;;;;;4.51;75.04;100799.19;1087939;54;20692;-81
2022/01/20 10:24:10;;;;;;;12.35;6.28;;;;;;;4.49;74.97;100795.78;1087989;54;20030;-80
2022/01/20 10:25:17;;;;;;;14.52;6.15;;;;;;;4.48;74.89;100783.47;1087980;54;20049;-79
2022/01/20 10:26:47;;;;;;;;;;;;;;;;;;;;;
2022/01/20 10:32:45;;;;;;;15.25;5.95;;;;;;;4.31;75.39;100781.78;1087253;54;20082;-80
2022/01/20 10:33:50;;;;;;;12.13;5.32;;;;;;;4.48;75.36;100780.81;1087940;54;20030;-80
2022/01/20 10:35:04;;;;;;;10.82;5.25;;;;;;;4.42;75.23;100783.84;1088224;47;20042;-82
2022/01/20 10:36:09;;;;;;;12.68;6.25;;;;;;;4.51;75.24;100780.66;1087963;54;20019;-81
2022/01/20 10:37:17;;;;;;;10.25;4.75;;;;;;;4.53;75.07;100777.91;1088018;54;20054;-82
2022/01/20 10:38:24;;;;;;;10.98;5.20;;;;;;;4.66;74.81;100788.66;1088022;54;20038;-81
2022/01/20 10:39:37;;;;;;;13.70;5.28;;;;;;;4.66;74.60;100783.34;1088171;54;20023;-83
2022/01/20 10:40:50;;;;;;;16.92;5.40;;;;;;;4.52;75.16;100792.97;1091217;47;20058;-82
2022/01/20 10:42:00;;;;;;;22.63;6.35;;;;;;;4.38;75.39;100779.63;1087996;54;20034;-80
2022/01/20 10:43:04;;;;;;;13.38;5.28;;;;;;;4.35;75.49;100788.63;1090265;47;20022;-80
2022/01/20 10:44:09;;;;;;;14.20;5.65;;;;;;;4.36;75.56;100781.50;1088845;47;20023;-82
2022/01/20 10:45:22;;;;;;;12.35;6.18;;;;;;;4.49;75.33;100787.84;1087961;54;20026;-81
2022/01/20 10:46:23;;;;;;;13.55;5.32;;;;;;;4.53;75.24;100781.41;1088101;54;20035;-82
2022/01/20 10:47:29;;;;;;;16.92;6.25;;;;;;;4.48;75.64;100780.81;1088024;54;20042;-83
2022/01/20 10:48:34;;;;;;;14.20;5.88;;;;;;;4.46;75.62;100777.41;1087987;54;20303;-83
2022/01/20 10:49:38;;;;;;;9.43;5.20;;;;;;;4.37;75.67;100773.50;1087980;54;20059;-80
2022/01/20 10:50:43;;;;;;;13.07;5.93;;;;;;;4.51;75.44;100774.50;1089946;47;20039;-80
2022/01/20 10:51:58;;;;;;;10.85;5.28;;;;;;;4.61;75.21;100773.03;1088046;54;20014;-82
2022/01/20 10:53:02;;;;;;;11.02;4.68;;;;;;;4.70;75.09;100769.00;1088085;54;20059;-81
2022/01/20 10:54:13;;;;;;;11.35;5.88;;;;;;;4.66;75.11;100778.06;1087980;54;20031;-81
2022/01/20 10:55:23;;;;;;;13.43;6.38;;;;;;;4.62;75.30;100769.44;1088069;54;20733;-81
2022/01/20 10:56:25;;;;;;;16.52;6.50;;;;;;;4.64;75.58;100766.69;1088038;54;20030;-81
2022/01/20 10:57:30;;;;;;;13.88;5.57;;;;;;;4.81;74.87;100763.94;1088018;54;20038;-81
2022/01/20 10:58:32;;;;;;;15.43;6.40;;;;;;;4.70;74.94;100766.34;1091008;47;20039;-81
2022/01/20 10:59:37;;;;;;;15.52;5.15;;;;;;;4.73;74.66;100760.84;1087977;54;20124;-81
2022/01/20 11:00:44;;;;;;;14.38;5.90;;;;;;;4.66;75.07;100757.72;1087983;54;20034;-81
2022/01/20 11:02:00;;;;;;;12.18;5.03;;;;;;;4.66;75.01;100759.50;1088103;54;20035;-81
2022/01/20 11:03:05;;;;;;;11.20;5.22;;;;;;;4.82;74.62;100747.06;1088024;54;20404;-82
2022/01/20 11:04:08;;;;;;;10.27;5.10;;;;;;;4.69;74.96;100746.94;1088880;47;20018;-82
2022/01/20 11:05:15;;;;;;;15.00;5.45;;;;;;;4.76;74.92;100747.44;1088282;54;20026;-83
2022/01/20 11:06:19;;;;;;;11.23;4.97;;;;;;;4.86;74.81;100744.25;1088387;54;20015;-81
2022/01/20 11:07:24;;;;;;;14.57;5.70;;;;;;;4.66;75.12;100747.13;1089672;46;20019;-81
2022/01/20 11:08:29;;;;;;;9.77;4.80;;;;;;;4.70;75.15;100742.50;1088292;54;20083;-82
2022/01/20 11:09:40;;;;;;;14.75;5.90;;;;;;;4.74;75.12;100743.19;1088658;46;20034;-81
2022/01/20 11:10:45;;;;;;;12.20;4.93;;;;;;;4.87;74.58;100738.00;1088395;54;20023;-83
2022/01/20 11:11:48;;;;;;;11.65;4.35;;;;;;;4.82;74.84;100741.78;1088417;54;20030;-81
2022/01/20 11:12:52;;;;;;;10.57;4.78;;;;;;;4.81;74.66;100736.56;1088309;54;20030;-85
2022/01/20 11:13:55;;;;;;;11.40;5.13;;;;;;;4.87;74.54;100738.00;1088376;54;20049;-80
2022/01/20 11:15:04;;;;;;;13.18;5.22;;;;;;;4.86;74.50;100742.47;1088409;54;20041;-81
2022/01/20 11:16:08;;;;;;;9.77;5.40;;;;;;;4.67;75.44;100737.38;1088276;54;20042;-81
2022/01/20 11:17:20;;;;;;;13.75;6.50;;;;;;;4.80;75.23;100738.38;1088326;54;20019;-80
2022/01/20 11:18:29;;;;;;;12.07;6.28;;;;;;;4.76;75.30;100742.13;1088288;54;20757;-83
2022/01/20 11:19:38;;;;;;;11.57;5.10;;;;;;;4.84;75.18;100741.69;1088358;54;20038;-80
2022/01/20 11:20:44;;;;;;;11.30;4.57;;;;;;;4.90;74.88;100748.44;1088595;46;20070;-81
2022/01/20 11:21:46;;;;;;;12.38;5.40;;;;;;;4.81;75.11;100737.44;1090252;46;20045;-83
2022/01/20 11:22:55;;;;;;;13.38;5.45;;;;;;;4.64;75.86;100743.72;1088304;54;20750;-80
2022/01/20 11:23:57;;;;;;;15.70;5.70;;;;;;;4.59;75.98;100744.94;1088351;54;20063;-80
2022/01/20 11:25:07;;;;;;;14.30;5.63;;;;;;;4.52;76.47;100749.72;1088235;54;20031;-82
2022/01/20 11:26:08;;;;;;;11.65;5.20;;;;;;;4.51;76.35;100748.88;1088275;54;20041;-81
2022/01/20 11:27:16;;;;;;;14.85;5.90;;;;;;;4.51;76.45;100761.25;1088302;54;20400;-82
2022/01/20 11:28:23;;;;;;;13.85;6.05;;;;;;;4.39;77.24;100754.03;1088312;47;20790;-83
2022/01/20 11:29:41;;;;;;;13.07;6.05;;;;;;;4.35;77.35;100754.19;1088288;54;20038;-82
2022/01/20 11:30:57;;;;;;;16.45;5.70;;;;;;;4.27;77.86;100774.09;1088236;54;20142;-79
2022/01/20 11:32:02;;;;;;;11.88;5.80;;;;;;;4.18;77.56;100775.47;1088337;54;20037;-82
2022/01/20 11:33:08;;;;;;;14.32;5.90;;;;;;;4.31;77.20;100783.56;1088196;54;20046;-81
2022/01/20 11:34:18;;;;;;;10.32;5.38;;;;;;;4.36;76.94;100790.31;1088266;54;20093;-80
2022/01/20 11:35:22;;;;;;;12.00;5.28;;;;;;;4.10;77.58;100769.75;1090636;46;20057;-82
2022/01/20 11:36:28;;;;;;;11.18;5.53;;;;;;;3.97;78.25;100765.13;1088200;54;20035;-82
2022/01/20 11:37:35;;;;;;;12.05;5.30;;;;;;;4.04;78.36;100771.78;1089131;46;20015;-82
2022/01/20 11:38:44;;;;;;;12.88;5.70;;;;;;;3.78;78.68;100765.28;1088276;54;20039;-83
2022/01/20 11:39:46;;;;;;;10.70;4.53;;;;;;;3.92;78.60;100761.03;1089789;46;20030;-80
2022/01/20 11:40:58;;;;;;;10.43;4.53;;;;;;;3.91;78.73;100760.19;1088293;54;20082;-85
2022/01/20 11:42:03;;;;;;;8.88;4.47;;;;;;;3.80;79.17;100766.06;1088278;54;20027;-82
2022/01/20 11:43:10;;;;;;;10.48;4.65;;;;;;;3.85;78.89;100765.81;1088347;54;20023;-83
2022/01/20 11:44:17;;;;;;;9.77;4.05;;;;;;;3.89;78.86;100765.53;1088222;54;20034;-83
2022/01/20 11:45:28;;;;;;;14.75;4.97;;;;;;;3.82;78.91;100764.19;1088926;46;20061;-82
2022/01/20 11:46:38;;;;;;;;;;;;;;;3.83;78.91;100763.25;1088440;54;20054;-82
2022/01/20 11:47:39;;;;;;;8.38;4.32;;;;;;;3.85;78.52;100760.50;1088282;46;19938;-83
2022/01/20 11:49:06;;;;;;;10.75;3.88;;;;;;;4.08;78.02;100761.88;1088300;54;20038;-82
2022/01/20 11:50:18;;;;;;;9.73;3.67;;;;;;;4.00;77.33;100757.03;1088080;54;20039;-83
2022/01/20 11:51:20;;;;;;;8.45;3.35;;;;;;;4.16;77.38;100759.66;1088231;54;20033;-82
2022/01/20 11:52:26;;;;;;;10.65;4.45;;;;;;;4.16;77.06;100757.00;1088269;54;20082;-82
2022/01/20 11:53:30;;;;;;;9.57;3.45;;;;;;;4.20;76.77;100750.63;1088550;46;20110;-80
2022/01/20 11:54:36;;;;;;;10.52;3.80;;;;;;;4.22;76.71;100753.16;1088283;47;20039;-82
2022/01/20 11:55:46;;;;;;;10.80;3.65;;;;;;;4.29;76.19;100749.25;1088750;46;20038;-83
2022/01/20 11:56:53;;;;;;;8.88;3.22;;;;;;;4.45;75.86;100749.22;1090659;46;20034;-85
2022/01/20 11:57:55;;;;;;;7.07;2.80;;;;;;;4.54;75.75;100758.44;1088995;46;20033;-83
2022/01/20 11:58:59;;;;;;;8.38;2.97;;;;;;;4.37;75.45;100751.44;1090164;46;20041;-82
2022/01/20 12:00:18;;;;;;;7.82;2.85;;;;;;;4.40;74.93;100751.28;1088177;54;20115;-81
2022/01/20 12:01:20;;;;;;;10.25;3.33;;;;;;;4.37;74.42;100754.09;1088447;46;20037;-81
2022/01/20 12:02:30;;;;;;;8.18;3.08;;;;;;;4.41;73.49;100750.34;1088894;46;20037;-81
2022/01/20 12:03:36;;;;;;;6.22;2.40;;;;;;;4.55;73.46;100754.84;1088260;54;20034;-82
2022/01/20 12:04:39;;;;;;;8.45;2.50;;;;;;;4.63;72.78;100749.13;1088213;54;20035;-81
2022/01/20 12:05:44;;;;;;;6.18;2.22;;;;;;;4.67;72.73;100745.34;1088246;54;20015;-81
2022/01/20 12:06:48;;;;;;;7.82;2.65;;;;;;;4.81;72.56;100742.75;1088129;54;20035;-82
2022/01/20 12:07:52;;;;;;;6.07;2.50;;;;;;;4.84;72.27;100742.53;1088189;54;20035;-82
2022/01/20 12:09:02;;;;;;;7.43;2.17;;;;;;;4.89;71.74;100742.25;1088269;54;20038;-82
2022/01/20 12:10:12;;;;;;;6.05;2.35;;;;;;;4.98;71.58;100740.88;1088291;54;20037;-82
2022/01/20 12:11:16;;;;;;;7.35;2.15;;;;;;;4.90;71.73;100732.53;1090227;46;20094;-80
2022/01/20 12:12:26;;;;;;;6.60;2.15;;;;;;;4.99;71.18;100734.63;1088215;54;20046;-81
2022/01/20 12:13:31;;;;;;;6.38;2.10;;;;;;;5.05;71.48;100741.38;1088288;54;20027;-79
2022/01/20 12:14:40;;;;;;;5.65;2.20;;;;;;;5.04;70.94;100745.81;1088226;54;20019;-81
2022/01/20 12:15:51;;;;;;;6.45;2.00;;;;;;;5.02;69.92;100752.97;1088139;54;20046;-80
2022/01/20 12:17:07;;;;;;;8.82;2.40;;;;;;;5.03;69.05;100749.41;1089274;46;20035;-82
2022/01/20 12:18:12;;;;;;;9.18;2.22;;;;;;;5.03;69.71;100753.84;1088791;46;20042;-83
2022/01/20 12:19:16;;;;;;;8.60;2.42;;;;;;;4.94;69.81;100749.94;1088002;54;20034;-82
2022/01/20 12:20:21;;;;;;;8.60;2.90;;;;;;;4.74;68.50;100748.47;1088249;54;20031;-81
2022/01/20 12:21:27;;;;;;;11.32;2.38;;;;;;;4.90;68.03;100751.09;1088978;46;20034;-82
2022/01/20 12:22:31;;;;;;;6.97;2.38;;;;;;;5.00;68.68;100750.44;1088175;54;20038;-81
2022/01/20 12:23:43;;;;;;;8.88;2.33;;;;;;;5.08;67.70;100746.47;1089630;46;20030;-83
2022/01/20 12:24:53;;;;;;;8.82;2.15;;;;;;;5.12;67.41;100751.50;1089719;46;20038;-80
2022/01/20 12:26:05;;;;;;;7.28;2.03;;;;;;;5.12;65.48;100751.50;1088166;54;20034;-83
2022/01/20 12:27:19;;;;;;;7.70;2.15;;;;;;;5.08;64.64;100750.00;1088902;46;20034;-80
2022/01/20 12:28:26;;;;;;;8.27;2.22;;;;;;;5.02;65.59;100752.16;1089460;46;20034;-83
2022/01/20 12:29:35;;;;;;;5.82;2.10;;;;;;;5.03;65.70;100752.03;1090205;39;20725;-81
2022/01/20 12:30:47;;;;;;;6.90;2.25;;;;;;;4.90;66.08;100745.78;1088211;54;20094;-80
2022/01/20 12:31:56;;;;;;;7.60;2.08;;;;;;;4.89;66.41;100752.03;1088124;54;20042;-80
2022/01/20 12:33:07;;;;;;;6.45;1.90;;;;;;;5.00;66.34;100749.59;1088174;54;20043;-82
2022/01/20 12:34:13;;;;;;;6.57;2.22;;;;;;;4.89;66.53;100749.38;1088181;54;20050;-85
2022/01/20 12:35:18;;;;;;;6.72;2.00;;;;;;;4.93;66.46;100749.09;1088258;54;20038;-81
2022/01/20 12:36:22;;;;;;;8.73;2.50;;;;;;;5.02;66.63;100747.69;1089190;46;20038;-82
2022/01/20 12:37:32;;;;;;;7.00;2.47;;;;;;;4.90;66.22;100748.44;1088203;54;20034;-82
2022/01/20 12:38:39;;;;;;;10.73;2.40;;;;;;;4.83;66.58;100743.47;1088995;46;20050;-83
2022/01/20 12:39:43;;;;;;;11.65;3.13;;;;;;;4.90;66.81;100761.69;1091791;46;20030;-84
2022/01/20 12:41:01;;;;;;;7.85;2.28;;;;;;;4.89;66.68;100760.81;1088204;54;20045;-83
2022/01/20 12:42:08;;;;;;;8.27;2.55;;;;;;;4.92;66.93;100765.06;1088199;54;20041;-83
2022/01/20 12:43:09;;;;;;;7.38;2.33;;;;;;;5.02;66.25;100760.94;1090226;46;20036;-83
2022/01/20 12:44:16;;;;;;;6.95;2.30;;;;;;;5.09;66.14;100751.69;1088124;54;20037;-81
2022/01/20 12:46:43;;;;;;;8.18;1.95;;;;;;;5.10;65.89;100756.03;1088201;54;20090;-87
2022/01/20 12:47:45;;;;;;;7.75;1.92;;;;;;;5.17;65.94;100753.88;1088117;54;20045;-84
2022/01/20 12:48:59;;;;;;;5.72;2.25;;;;;;;5.10;65.90;100756.03;1091774;46;20041;-83
2022/01/20 12:50:01;;;;;;;5.28;1.83;;;;;;;5.15;66.00;100751.31;1088491;46;20026;-82
2022/01/20 12:51:07;;;;;;;8.73;2.20;;;;;;;5.17;65.43;100755.69;1092052;46;20034;-83
2022/01/20 12:52:13;;;;;;;8.82;2.40;;;;;;;5.14;65.72;100757.56;1088149;54;20769;-82
2022/01/20 12:53:18;;;;;;;7.47;1.73;;;;;;;5.11;65.68;100757.72;1088232;54;20038;-80
2022/01/20 12:54:26;;;;;;;5.28;1.63;;;;;;;5.13;65.51;100753.19;1088131;54;20038;-84
2022/01/20 12:55:28;;;;;;;7.53;1.92;;;;;;;5.13;65.75;100766.44;1089867;46;20025;-83
2022/01/20 12:56:34;;;;;;;8.45;2.78;;;;;;;4.96;66.35;100759.50;1090611;46;20054;-82
2022/01/20 12:57:38;;;;;;;7.30;1.90;;;;;;;5.07;66.07;100763.31;1088120;54;20038;-84
2022/01/20 12:58:45;;;;;;;5.45;1.77;;;;;;;5.08;65.72;100765.03;1088222;54;20054;-83
2022/01/20 12:59:54;;;;;;;12.32;2.35;;;;;;;5.00;66.04;100768.16;1088601;46;20019;-84
2022/01/20 13:00:58;;;;;;;5.93;2.00;;;;;;;5.11;66.20;100760.38;1090342;46;20015;-82
2022/01/20 13:02:05;;;;;;;6.63;2.67;;;;;;;5.19;65.61;100762.59;1091148;46;20065;-85
2022/01/20 13:03:07;;;;;;;8.85;2.35;;;;;;;5.03;65.77;100769.75;1091783;46;20030;-82
2022/01/20 13:04:13;;;;;;;9.10;2.58;;;;;;;5.08;65.77;100763.25;1088162;54;20078;-82
2022/01/20 13:05:16;;;;;;;6.95;1.92;;;;;;;5.17;65.47;100761.81;1088229;54;20048;-83
2022/01/20 13:06:26;;;;;;;6.03;1.95;;;;;;;5.13;64.97;100765.63;1088167;54;20037;-82
2022/01/20 13:07:37;;;;;;;10.18;2.00;;;;;;;5.15;65.23;100761.06;1088178;54;20059;-82
2022/01/20 13:08:41;;;;;;;11.15;2.60;;;;;;;4.88;65.34;100772.34;1088214;54;20057;-83
2022/01/20 13:09:52;;;;;;;7.00;2.30;;;;;;;5.05;65.38;100763.41;1088127;54;20019;-81
2022/01/20 13:11:02;;;;;;;8.18;2.20;;;;;;;4.92;64.94;100765.94;1094243;39;20532;-83
2022/01/20 13:12:09;;;;;;;11.07;2.38;;;;;;;5.03;65.15;100770.59;1088157;54;20030;-82
2022/01/20 13:13:16;;;;;;;7.20;2.00;;;;;;;5.08;64.96;100762.38;1092836;39;20297;-82
2022/01/20 13:14:22;;;;;;;9.98;2.95;;;;;;;4.95;65.01;100762.25;1088481;46;20030;-82
2022/01/20 13:15:29;;;;;;;6.95;2.30;;;;;;;5.01;65.29;100767.19;1088141;54;20817;-81
2022/01/20 13:16:34;;;;;;;9.02;2.25;;;;;;;5.00;64.78;100760.19;1088164;54;20034;-81
2022/01/20 13:17:39;;;;;;;8.43;1.92;;;;;;;5.08;64.92;100762.38;1088097;54;20069;-81
2022/01/20 13:18:55;;;;;;;6.28;2.15;;;;;;;5.03;64.61;100765.28;1088181;54;20042;-82
2022/01/20 13:20:01;;;;;;;6.82;1.90;;;;;;;5.12;64.51;100764.75;1088326;46;20045;-82
2022/01/20 13:21:05;;;;;;;5.68;1.70;;;;;;;5.16;64.42;100754.81;1089016;46;20038;-83
2022/01/20 13:22:21;;;;;;;7.35;1.75;;;;;;;5.12;63.90;100758.59;1092517;39;20642;-82
2022/01/20 13:24:42;;;;;;;10.25;2.55;;;;;;;4.97;64.38;100753.25;1088096;54;20026;-83
2022/01/20 13:25:43;;;;;;;7.38;2.45;;;;;;;4.94;64.87;100763.19;1088184;54;20041;-80
2022/01/20 13:26:53;;;;;;;8.80;2.15;;;;;;;4.97;64.64;100765.66;1087860;54;20022;-84
2022/01/20 13:28:00;;;;;;;8.57;2.05;;;;;;;4.93;64.89;100765.00;1088048;54;20039;-83